Time;durP1;ratioP1;P1;durP2;ratioP2;P2;SDS_P1;SDS_P2;PMS_P1;PMS_P2;Temp;Humidity;BMP_temperature;BMP_pressure;BME280_temperature;BME280_humidity;BME280_pressure;Samples;Min_cycle;Max_cycle;Signal;HPM_P1;HPM_P2
2024/03/16 00:02:13;;;;;;;12.70;8.45;;;;;;;11.22;87.56;100182.97;5101011;28;20023;-63
2024/03/16 00:04:39;;;;;;;13.68;8.30;;;;;;;11.22;86.96;100180.31;5100954;28;20332;-64
2024/03/16 00:07:05;;;;;;;16.10;8.57;;;;;;;11.21;86.73;100189.25;5101167;28;20062;-63
2024/03/16 00:09:30;;;;;;;14.70;7.80;;;;;;;11.08;87.70;100175.56;5100040;28;20381;-63
2024/03/16 00:11:56;;;;;;;13.32;7.43;;;;;;;11.11;87.13;100175.25;5099766;28;20028;-63
2024/03/16 00:14:23;;;;;;;18.13;9.23;;;;;;;11.12;87.38;100176.94;5099752;28;20035;-64
2024/03/16 00:16:58;;;;;;;14.32;9.05;;;;;;;11.01;86.94;100179.84;5099618;28;20028;-63
2024/03/16 00:19:24;;;;;;;16.67;8.35;;;;;;;11.08;86.32;100167.63;5100466;28;20478;-66
2024/03/16 00:21:50;;;;;;;11.32;7.85;;;;;;;11.04;85.60;100177.69;5096452;28;20035;-65
2024/03/16 00:24:16;;;;;;;12.63;8.10;;;;;;;10.96;85.31;100168.84;5101219;28;20035;-64
2024/03/16 00:26:41;;;;;;;13.07;7.60;;;;;;;10.93;85.26;100167.34;5100267;28;20191;-63
2024/03/16 00:29:07;;;;;;;11.80;7.57;;;;;;;10.93;85.45;100171.81;5100177;28;20052;-63
2024/03/16 00:34:20;;;;;;;14.32;7.55;;;;;;;10.81;86.02;100172.06;5100703;28;20042;-63
2024/03/16 00:36:45;;;;;;;14.07;7.63;;;;;;;10.74;86.44;100178.13;5099602;28;20040;-62
2024/03/16 00:39:18;;;;;;;12.88;7.97;;;;;;;10.70;86.76;100180.25;5099422;28;20036;-65
2024/03/16 00:41:44;;;;;;;15.70;7.50;;;;;;;10.70;87.56;100167.00;5099761;28;20107;-65
2024/03/16 00:44:09;;;;;;;16.92;7.78;;;;;;;10.78;87.14;100171.53;5099197;28;20056;-63
2024/03/16 00:46:35;;;;;;;13.65;7.82;;;;;;;10.83;86.83;100167.44;5098773;28;20075;-62
2024/03/16 00:49:02;;;;;;;13.10;6.97;;;;;;;10.81;87.20;100173.88;5099217;28;20326;-62
2024/03/16 00:51:28;;;;;;;14.07;7.60;;;;;;;10.89;87.15;100166.00;5099557;28;20419;-67
2024/03/16 00:53:54;;;;;;;13.93;8.20;;;;;;;10.90;87.07;100165.00;5099057;28;20039;-66
2024/03/16 00:56:23;;;;;;;13.55;7.82;;;;;;;10.95;86.49;100164.53;5098612;28;20032;-64
2024/03/16 00:58:49;;;;;;;16.83;8.05;;;;;;;11.00;85.96;100164.91;5098490;28;20048;-64
2024/03/16 01:01:14;;;;;;;14.70;8.40;;;;;;;10.91;85.17;100163.19;5098891;28;20039;-65
2024/03/16 01:03:40;;;;;;;30.40;13.35;;;;;;;10.84;84.77;100157.69;5099246;28;20050;-66
2024/03/16 01:06:05;;;;;;;18.40;9.75;;;;;;;10.71;85.05;100160.72;5098825;28;20040;-65
2024/03/16 01:08:31;;;;;;;18.60;10.40;;;;;;;10.47;85.74;100153.38;5098184;28;20044;-65
2024/03/16 01:10:56;;;;;;;30.90;13.90;;;;;;;10.25;87.34;100159.09;5098938;28;20058;-65
2024/03/16 01:13:22;;;;;;;14.70;7.68;;;;;;;10.16;84.31;100159.97;5098232;28;20047;-65
2024/03/16 01:15:48;;;;;;;10.93;6.47;;;;;;;9.97;80.08;100157.44;5098366;28;20268;-65
2024/03/16 01:18:13;;;;;;;13.35;8.10;;;;;;;10.13;80.25;100163.75;5098545;28;20044;-65
2024/03/16 01:20:43;;;;;;;17.17;9.65;;;;;;;10.18;81.21;100165.94;5098637;28;20248;-65
2024/03/16 01:23:09;;;;;;;16.58;9.00;;;;;;;10.15;83.60;100153.00;5098354;28;20074;-66
2024/03/16 01:25:34;;;;;;;15.32;8.65;;;;;;;10.10;83.36;100161.38;5097760;28;20046;-64
2024/03/16 01:28:00;;;;;;;10.02;6.47;;;;;;;10.07;79.48;100164.34;5097560;28;20028;-65
2024/03/16 01:30:25;;;;;;;11.10;7.43;;;;;;;9.96;76.51;100164.53;5097660;28;20345;-65
2024/03/16 01:32:51;;;;;;;12.88;8.00;;;;;;;9.91;77.83;100169.44;5097767;28;20039;-64
2024/03/16 01:35:16;;;;;;;14.15;7.22;;;;;;;9.89;79.41;100166.13;5097658;28;20261;-64
2024/03/16 01:37:42;;;;;;;13.40;7.57;;;;;;;9.88;79.03;100164.44;5097354;28;20040;-66
2024/03/16 01:40:08;;;;;;;12.05;6.97;;;;;;;9.88;79.03;100170.56;5098784;28;20035;-66
2024/03/16 01:42:33;;;;;;;12.95;6.88;;;;;;;9.96;79.18;100174.28;5098323;28;20036;-64
2024/03/16 01:45:07;;;;;;;13.75;6.95;;;;;;;9.75;81.77;100180.66;5098237;28;20241;-64
2024/03/16 01:47:32;;;;;;;12.25;7.78;;;;;;;9.60;84.54;100168.88;5098911;28;20105;-64
2024/03/16 01:49:59;;;;;;;16.00;8.70;;;;;;;9.62;87.85;100174.03;5097684;28;20044;-64
2024/03/16 01:52:26;;;;;;;15.90;9.35;;;;;;;9.55;89.75;100161.41;5097139;28;20032;-66
2024/03/16 01:54:51;;;;;;;21.50;11.57;;;;;;;9.58;90.00;100170.84;5098209;28;20064;-66
2024/03/16 01:57:17;;;;;;;30.50;15.65;;;;;;;9.70;89.26;100166.19;5096678;28;20336;-64
2024/03/16 01:59:42;;;;;;;21.35;13.00;;;;;;;9.51;89.91;100170.59;5097339;28;20044;-64
2024/03/16 02:02:37;;;;;;;18.25;10.65;;;;;;;9.46;91.51;100164.91;5097024;28;20211;-64
2024/03/16 02:05:06;;;;;;;15.27;9.48;;;;;;;9.47;91.26;100168.38;5088750;28;20059;-64
2024/03/16 02:07:37;;;;;;;22.55;11.00;;;;;;;9.35;91.29;100172.97;5097074;28;20231;-64
2024/03/16 02:10:08;;;;;;;20.20;10.73;;;;;;;9.35;91.58;100172.16;5096946;28;20128;-64
2024/03/16 02:12:34;;;;;;;22.63;11.65;;;;;;;9.44;91.83;100168.69;5097399;28;20036;-64
2024/03/16 02:15:00;;;;;;;14.90;9.30;;;;;;;9.64;90.98;100175.56;5097358;28;20044;-66
2024/03/16 02:17:26;;;;;;;16.50;10.30;;;;;;;9.72;90.17;100177.47;5097236;28;20268;-64
2024/03/16 02:19:52;;;;;;;18.33;10.07;;;;;;;9.60;90.64;100176.81;5097457;28;20062;-64
2024/03/16 02:22:19;;;;;;;15.43;9.93;;;;;;;9.70;91.01;100180.25;5097412;28;20046;-64
2024/03/16 02:24:45;;;;;;;18.15;10.25;;;;;;;9.74;91.16;100173.69;5095532;28;20044;-67
2024/03/16 02:27:11;;;;;;;18.60;10.30;;;;;;;9.75;90.38;100177.19;5096843;28;20043;-66
2024/03/16 02:29:37;;;;;;;16.08;9.02;;;;;;;9.68;90.69;100184.03;5097764;28;20047;-64
2024/03/16 02:32:07;;;;;;;15.73;9.57;;;;;;;9.70;90.76;100180.25;5095614;28;20538;-64
2024/03/16 02:34:33;;;;;;;15.52;9.25;;;;;;;9.69;90.39;100186.53;5095454;28;20039;-64
2024/03/16 02:36:59;;;;;;;15.10;8.98;;;;;;;9.68;88.58;100176.09;5093488;28;20268;-64
2024/03/16 02:39:25;;;;;;;14.88;8.80;;;;;;;9.58;88.53;100179.63;5097386;28;20051;-64
2024/03/16 02:41:52;;;;;;;13.95;8.35;;;;;;;9.67;89.14;100180.56;5095443;28;20024;-64
2024/03/16 02:44:19;;;;;;;17.15;9.32;;;;;;;9.72;89.00;100186.25;5096349;28;20039;-66
2024/03/16 02:46:45;;;;;;;14.93;8.82;;;;;;;9.83;88.30;100178.09;5095533;28;20282;-66
2024/03/16 02:49:10;;;;;;;20.52;11.27;;;;;;;9.85;86.58;100193.84;5095256;28;20040;-64
2024/03/16 02:51:36;;;;;;;20.23;11.45;;;;;;;9.77;85.38;100197.22;5095174;28;20113;-64
2024/03/16 02:54:04;;;;;;;21.63;11.23;;;;;;;9.77;85.25;100194.56;5096384;28;20034;-65
2024/03/16 02:56:30;;;;;;;20.95;12.15;;;;;;;9.77;84.41;100197.22;5096270;28;20289;-66
2024/03/16 02:58:56;;;;;;;18.15;11.07;;;;;;;9.72;84.95;100199.47;5095601;28;20048;-64
2024/03/16 03:01:21;;;;;;;17.60;10.80;;;;;;;9.77;85.98;100207.78;5096130;28;20256;-65
2024/03/16 03:03:47;;;;;;;16.88;9.75;;;;;;;9.80;86.36;100209.31;5096036;28;20333;-64
2024/03/16 03:06:12;;;;;;;16.13;9.18;;;;;;;9.71;87.06;100205.72;5096612;28;20318;-64
2024/03/16 03:08:38;;;;;;;18.45;11.02;;;;;;;9.80;86.49;100201.38;5095261;28;20055;-64
2024/03/16 03:11:04;;;;;;;16.83;9.98;;;;;;;9.89;86.01;100205.78;5096726;28;20032;-64
2024/03/16 03:13:29;;;;;;;15.50;9.05;;;;;;;9.98;86.43;100204.06;5095248;28;20254;-64
2024/03/16 03:15:56;;;;;;;17.67;10.50;;;;;;;9.95;85.48;100202.56;5096600;28;20028;-66
2024/03/16 03:18:24;;;;;;;20.85;11.30;;;;;;;9.93;86.32;100204.50;5095211;28;20678;-64
2024/03/16 03:20:51;;;;;;;24.23;13.15;;;;;;;10.03;86.15;100210.59;5096394;28;20069;-65
2024/03/16 03:23:17;;;;;;;27.95;13.15;;;;;;;10.08;85.52;100213.63;5096257;28;20032;-64
2024/03/16 03:25:43;;;;;;;15.43;9.02;;;;;;;10.10;85.02;100209.03;5094834;28;20345;-66
2024/03/16 03:28:08;;;;;;;16.35;8.50;;;;;;;10.02;84.67;100216.84;5095959;28;20356;-66
2024/03/16 03:30:34;;;;;;;16.85;9.25;;;;;;;10.04;84.72;100216.72;5095573;28;20039;-65
2024/03/16 03:32:59;;;;;;;13.95;8.00;;;;;;;9.93;84.79;100220.38;5095426;28;20284;-64
2024/03/16 03:35:25;;;;;;;16.45;9.40;;;;;;;10.00;85.52;100220.63;5095333;28;20211;-64
2024/03/16 03:38:07;;;;;;;13.70;7.85;;;;;;;9.90;84.50;100225.97;5095585;28;20309;-65
2024/03/16 03:40:33;;;;;;;12.45;6.90;;;;;;;9.68;86.00;100228.97;5094721;28;20024;-64
2024/03/16 03:43:01;;;;;;;13.95;7.93;;;;;;;9.59;85.96;100228.03;5095528;28;20047;-64
2024/03/16 03:46:28;;;;;;;11.48;7.22;;;;;;;9.46;87.78;100231.00;5095130;28;20115;-64
2024/03/16 03:50:55;;;;;;;12.20;6.93;;;;;;;9.73;86.21;100242.59;5095303;28;20268;-64
2024/03/16 03:53:22;;;;;;;12.43;7.00;;;;;;;9.87;84.71;100247.41;5094767;28;20032;-65
2024/03/16 03:55:48;;;;;;;11.02;6.68;;;;;;;9.90;83.66;100242.69;5094656;28;20038;-64
2024/03/16 03:58:13;;;;;;;17.55;9.10;;;;;;;9.93;83.85;100249.47;5096580;28;20047;-66
2024/03/16 04:00:39;;;;;;;13.50;7.55;;;;;;;9.87;83.57;100252.72;5095916;28;20169;-66
2024/03/16 04:03:06;;;;;;;11.55;7.22;;;;;;;9.96;83.50;100249.19;5099601;28;20373;-64
2024/03/16 04:05:33;;;;;;;13.55;7.05;;;;;;;10.05;82.81;100261.53;5097444;28;20028;-65
2024/03/16 04:07:59;;;;;;;10.88;6.55;;;;;;;10.07;81.99;100258.75;5099546;28;20044;-65
2024/03/16 04:10:24;;;;;;;18.67;9.23;;;;;;;9.98;81.70;100259.63;5098558;28;20066;-64
2024/03/16 04:12:50;;;;;;;15.63;8.90;;;;;;;9.92;82.11;100248.66;5099776;28;20349;-64
2024/03/16 04:15:16;;;;;;;10.70;7.03;;;;;;;9.97;82.05;100263.25;5098147;28;20044;-64
2024/03/16 04:17:42;;;;;;;13.90;7.97;;;;;;;9.95;81.68;100255.47;5098645;28;20047;-64
2024/03/16 04:20:10;;;;;;;20.30;11.50;;;;;;;10.02;81.19;100259.19;5098902;28;20322;-66
2024/03/16 04:22:36;;;;;;;14.07;8.52;;;;;;;9.99;80.69;100259.47;5098212;28;20040;-66
2024/03/16 04:25:08;;;;;;;15.10;7.97;;;;;;;9.94;80.78;100269.66;5098782;28;20294;-64
2024/03/16 04:27:33;;;;;;;13.35;7.10;;;;;;;9.86;81.11;100264.28;5098737;28;20055;-64
2024/03/16 04:29:59;;;;;;;11.73;7.22;;;;;;;9.90;81.06;100269.13;5097763;28;20028;-64
2024/03/16 04:32:27;;;;;;;12.45;8.27;;;;;;;9.96;80.54;100270.34;5098348;28;20341;-64
2024/03/16 04:34:53;;;;;;;13.07;7.75;;;;;;;9.82;79.50;100276.94;5099713;28;20333;-66
2024/03/16 04:37:19;;;;;;;11.60;7.68;;;;;;;9.69;80.97;100276.44;5097271;28;20040;-64
2024/03/16 04:39:45;;;;;;;15.27;7.72;;;;;;;9.72;80.74;100275.31;5099143;28;20076;-64
2024/03/16 04:42:11;;;;;;;12.98;7.43;;;;;;;9.78;80.25;100280.03;5097110;28;20036;-64
2024/03/16 04:44:37;;;;;;;13.13;6.95;;;;;;;9.76;79.80;100269.59;5099137;28;20289;-64
2024/03/16 04:47:04;;;;;;;10.40;6.47;;;;;;;9.83;79.40;100286.56;5096799;28;20028;-65
2024/03/16 04:49:30;;;;;;;9.25;5.90;;;;;;;9.85;78.99;100287.25;5098434;28;20240;-66
2024/03/16 04:51:55;;;;;;;12.57;6.65;;;;;;;9.83;77.39;100286.56;5097521;28;20325;-66
2024/03/16 04:54:21;;;;;;;11.25;6.82;;;;;;;9.81;77.76;100288.50;5098390;28;20074;-64
2024/03/16 04:56:47;;;;;;;19.88;7.47;;;;;;;9.80;77.81;100289.47;5097579;28;20257;-64
2024/03/16 04:59:12;;;;;;;12.23;7.18;;;;;;;9.77;78.25;100281.00;5097772;28;20308;-64
2024/03/16 05:01:38;;;;;;;11.55;6.18;;;;;;;9.77;78.80;100287.13;5097788;28;20096;-66
2024/03/16 05:04:04;;;;;;;14.98;8.40;;;;;;;9.80;78.94;100289.47;5097499;28;20079;-64
2024/03/16 05:06:33;;;;;;;16.90;8.35;;;;;;;9.81;78.28;100299.09;5095974;28;20047;-64
2024/03/16 05:08:59;;;;;;;14.70;9.73;;;;;;;9.73;78.08;100301.63;5096932;28;20051;-64
2024/03/16 05:11:24;;;;;;;16.65;8.23;;;;;;;9.77;78.84;100300.34;5097450;28;20074;-64
2024/03/16 05:13:50;;;;;;;13.77;7.25;;;;;;;9.82;78.07;100297.28;5096104;28;20335;-64
2024/03/16 05:16:16;;;;;;;13.35;6.80;;;;;;;9.80;77.52;100289.47;5097387;28;20138;-64
2024/03/16 05:18:41;;;;;;;13.60;8.10;;;;;;;9.73;77.28;100295.50;5096585;28;20044;-66
2024/03/16 05:21:08;;;;;;;17.77;9.65;;;;;;;9.72;78.07;100293.81;5097750;28;20101;-66
2024/03/16 05:23:34;;;;;;;16.98;9.00;;;;;;;9.74;78.16;100302.44;5097059;28;20106;-64
2024/03/16 05:26:00;;;;;;;12.65;7.68;;;;;;;9.75;78.33;100294.38;5098048;28;20034;-64
2024/03/16 05:28:25;;;;;;;12.43;7.60;;;;;;;9.70;78.38;100298.41;5094679;28;20368;-64
2024/03/16 05:30:52;;;;;;;11.68;6.45;;;;;;;9.67;79.47;100296.91;5097360;28;20404;-66
2024/03/16 05:33:18;;;;;;;12.00;7.25;;;;;;;9.75;79.21;100298.81;5095822;28;20043;-65
2024/03/16 05:35:43;;;;;;;10.90;7.20;;;;;;;9.81;78.85;100296.44;5097117;28;20234;-64
2024/03/16 05:38:09;;;;;;;13.55;7.88;;;;;;;9.75;79.06;100290.88;5096546;28;20066;-64
2024/03/16 05:40:37;;;;;;;11.57;7.20;;;;;;;9.73;79.46;100298.13;5096931;28;20032;-64
2024/03/16 05:43:03;;;;;;;16.02;8.63;;;;;;;9.74;80.22;100305.09;5096801;28;20082;-64
2024/03/16 05:45:28;;;;;;;12.60;8.88;;;;;;;9.63;79.12;100294.69;5097201;28;20040;-64
2024/03/16 05:47:54;;;;;;;15.23;7.28;;;;;;;9.67;79.44;100301.34;5097235;28;20118;-65
2024/03/16 05:50:21;;;;;;;16.58;9.70;;;;;;;9.95;79.06;100297.78;5095585;28;20028;-65
2024/03/16 05:52:46;;;;;;;11.43;7.35;;;;;;;9.96;76.94;100293.34;5097041;28;20067;-66
2024/03/16 05:55:12;;;;;;;14.38;7.18;;;;;;;9.71;78.22;100310.66;5097594;28;20133;-64
2024/03/16 05:57:37;;;;;;;15.88;9.50;;;;;;;9.89;77.51;100303.66;5098035;28;20062;-64
2024/03/16 06:00:13;;;;;;;13.40;8.25;;;;;;;10.07;76.23;100303.72;5096151;28;20279;-64
2024/03/16 06:02:39;;;;;;;11.43;7.07;;;;;;;10.29;74.92;100307.84;5097490;28;20040;-64
2024/03/16 06:05:04;;;;;;;14.02;7.70;;;;;;;10.42;74.24;100305.72;5095734;28;20357;-66
2024/03/16 06:07:30;;;;;;;12.68;7.97;;;;;;;10.54;73.79;100308.03;5097153;28;20322;-64
2024/03/16 06:09:56;;;;;;;10.40;6.90;;;;;;;10.69;73.20;100311.00;5095383;28;20275;-64
2024/03/16 06:12:22;;;;;;;11.07;6.97;;;;;;;10.86;72.44;100310.19;5097712;28;20237;-64
2024/03/16 06:14:47;;;;;;;18.50;9.75;;;;;;;10.97;71.76;100308.31;5096625;28;20051;-64
2024/03/16 06:17:13;;;;;;;12.10;7.18;;;;;;;10.98;71.66;100304.69;5096963;28;20385;-64
2024/03/16 06:19:38;;;;;;;13.25;7.70;;;;;;;10.54;74.26;100304.53;5097110;28;20036;-64
2024/03/16 06:22:05;;;;;;;15.63;8.45;;;;;;;10.40;76.16;100312.94;5096325;28;20349;-64
2024/03/16 06:24:31;;;;;;;13.65;8.40;;;;;;;10.60;75.63;100308.41;5096870;28;20070;-64
2024/03/16 06:27:04;;;;;;;17.83;8.73;;;;;;;10.61;74.46;100302.97;5096340;28;20202;-66
2024/03/16 06:29:31;;;;;;;11.45;7.20;;;;;;;10.40;78.11;100311.16;5096758;28;20044;-64
2024/03/16 06:32:05;;;;;;;12.68;7.22;;;;;;;10.14;79.08;100313.59;5096178;28;20457;-64
2024/03/16 06:34:31;;;;;;;;;;;;;;;10.14;80.24;100316.25;5097996;28;20222;-65
2024/03/16 06:36:56;;;;;;;12.95;8.20;;;;;;;10.19;80.97;100315.81;5095843;28;19919;-64
2024/03/16 06:39:23;;;;;;;13.48;8.30;;;;;;;10.42;79.84;100321.63;5096421;28;20356;-67
2024/03/16 06:41:49;;;;;;;16.58;9.88;;;;;;;10.51;78.97;100318.91;5096046;28;20036;-64
2024/03/16 06:44:17;;;;;;;18.77;10.77;;;;;;;10.66;78.35;100326.38;5097109;28;20055;-65
2024/03/16 06:46:42;;;;;;;19.95;12.75;;;;;;;10.62;77.03;100317.88;5095216;28;20051;-64
2024/03/16 06:49:08;;;;;;;25.75;12.85;;;;;;;10.05;79.69;100313.63;5097193;28;20075;-64
2024/03/16 06:51:34;;;;;;;21.63;14.13;;;;;;;10.19;79.52;100307.88;5096051;28;20219;-64
2024/03/16 06:54:30;;;;;;;20.25;12.27;;;;;;;10.35;80.34;100318.69;5096322;28;20050;-64
2024/03/16 06:56:56;;;;;;;21.55;13.30;;;;;;;10.59;79.39;100327.94;5095189;28;20074;-64
2024/03/16 06:59:22;;;;;;;21.60;12.13;;;;;;;10.51;78.35;100326.03;5096007;28;20062;-66
2024/03/16 07:01:47;;;;;;;18.48;11.32;;;;;;;10.49;78.59;100320.03;5096177;28;20028;-66
2024/03/16 07:04:15;;;;;;;18.73;10.85;;;;;;;10.75;77.19;100323.66;5096454;28;20031;-64
2024/03/16 07:06:40;;;;;;;16.13;10.63;;;;;;;10.93;76.72;100331.63;5095540;28;20058;-64
2024/03/16 07:09:08;;;;;;;17.63;10.15;;;;;;;11.06;75.06;100334.75;5096434;28;20044;-64
2024/03/16 07:12:11;;;;;;;17.42;10.23;;;;;;;11.25;73.61;100324.97;5096228;28;20099;-64
2024/03/16 07:14:36;;;;;;;16.02;8.73;;;;;;;11.37;72.77;100332.53;5094881;28;20359;-66
2024/03/16 07:17:02;;;;;;;12.55;8.43;;;;;;;11.49;71.93;100331.34;5094836;28;20032;-65
2024/03/16 07:19:28;;;;;;;14.45;8.20;;;;;;;11.71;71.43;100335.31;5095369;28;20055;-64
2024/03/16 07:21:53;;;;;;;13.70;8.25;;;;;;;11.85;70.71;100331.31;5096735;28;20047;-64
2024/03/16 07:24:19;;;;;;;13.82;8.45;;;;;;;12.07;70.88;100336.09;5096153;28;20038;-64
2024/03/16 07:26:44;;;;;;;13.45;8.85;;;;;;;12.32;71.29;100334.38;5094943;28;20058;-64
2024/03/16 07:29:10;;;;;;;13.85;8.30;;;;;;;12.49;69.47;100339.78;5094934;28;20358;-64
2024/03/16 07:31:36;;;;;;;13.77;8.45;;;;;;;12.81;68.03;100339.06;5095144;28;20046;-67
2024/03/16 07:34:03;;;;;;;13.95;9.07;;;;;;;13.07;67.26;100345.94;5093956;28;20233;-66
2024/03/16 07:36:29;;;;;;;12.80;8.50;;;;;;;13.06;66.73;100341.63;5098324;28;20043;-64
2024/03/16 07:38:56;;;;;;;13.15;7.95;;;;;;;13.17;66.50;100348.50;5098679;28;20093;-64
2024/03/16 07:41:21;;;;;;;13.70;7.60;;;;;;;13.15;66.61;100337.16;5096628;28;20055;-64
2024/03/16 07:43:47;;;;;;;12.90;8.15;;;;;;;13.33;67.83;100337.88;5099703;28;20272;-65
2024/03/16 07:46:12;;;;;;;12.27;8.18;;;;;;;13.76;66.28;100335.06;5100332;28;20032;-64
2024/03/16 07:48:38;;;;;;;11.25;6.60;;;;;;;13.82;64.81;100332.56;5100439;28;20353;-65
2024/03/16 07:51:04;;;;;;;10.07;6.78;;;;;;;13.89;63.88;100338.03;5101075;28;20329;-65
2024/03/16 07:53:32;;;;;;;9.43;6.28;;;;;;;13.95;65.45;100332.88;5101926;28;20044;-67
2024/03/16 07:55:58;;;;;;;11.48;6.60;;;;;;;14.20;64.44;100338.97;5100140;28;20024;-65
2024/03/16 07:58:26;;;;;;;8.77;6.45;;;;;;;14.32;63.25;100334.09;5100809;28;20056;-65
2024/03/16 08:00:52;;;;;;;9.88;6.25;;;;;;;14.37;63.52;100321.09;5100263;28;20028;-65
2024/03/16 08:03:18;;;;;;;10.02;6.35;;;;;;;14.29;63.44;100315.78;5100485;28;20103;-65
2024/03/16 08:05:44;;;;;;;10.80;6.53;;;;;;;14.18;63.11;100322.31;5100603;28;20238;-64
2024/03/16 08:08:10;;;;;;;10.68;6.20;;;;;;;14.22;63.04;100318.31;5101543;28;20093;-65
2024/03/16 08:10:35;;;;;;;10.20;6.63;;;;;;;14.39;63.45;100321.75;5100713;28;20361;-65
2024/03/16 08:13:01;;;;;;;10.07;7.03;;;;;;;14.34;62.31;100310.78;5101378;28;20028;-65
2024/03/16 08:15:27;;;;;;;9.85;6.75;;;;;;;14.52;62.58;100322.06;5097970;28;20385;-67
2024/03/16 08:17:54;;;;;;;10.52;7.28;;;;;;;14.44;62.86;100313.28;5091827;28;20088;-67
2024/03/16 08:20:20;;;;;;;11.43;7.20;;;;;;;14.28;63.56;100317.63;5098401;28;20039;-64
2024/03/16 08:22:48;;;;;;;12.00;7.38;;;;;;;14.41;64.02;100317.09;5100021;28;20044;-65
2024/03/16 08:25:14;;;;;;;9.82;6.60;;;;;;;14.70;62.26;100313.84;5099965;28;20095;-64
2024/03/16 08:27:40;;;;;;;10.43;6.90;;;;;;;14.52;64.30;100308.72;5099769;28;20032;-67
2024/03/16 08:30:06;;;;;;;9.98;7.10;;;;;;;14.18;64.04;100308.19;5100722;28;20247;-66
2024/03/16 08:32:32;;;;;;;12.63;7.47;;;;;;;14.15;64.76;100311.19;5095446;28;20067;-65
2024/03/16 08:34:57;;;;;;;13.82;8.65;;;;;;;13.66;66.24;100312.13;5093944;28;20097;-62
2024/03/16 08:37:23;;;;;;;12.63;7.88;;;;;;;13.81;68.61;100314.09;5100117;28;20044;-65
2024/03/16 08:39:48;;;;;;;12.60;8.52;;;;;;;14.08;66.21;100313.69;5099824;28;20048;-65
2024/03/16 08:42:14;;;;;;;13.00;8.63;;;;;;;13.90;67.82;100313.06;5099854;28;20039;-66
2024/03/16 08:44:40;;;;;;;19.80;10.75;;;;;;;13.58;71.12;100308.63;5099617;28;20047;-65
2024/03/16 08:47:05;;;;;;;16.90;11.10;;;;;;;13.57;73.54;100315.78;5099302;28;20089;-64
2024/03/16 08:49:31;;;;;;;17.95;10.52;;;;;;;12.84;73.64;100305.03;5099201;28;20354;-65
2024/03/16 08:52:00;;;;;;;18.02;10.65;;;;;;;12.93;74.29;100316.50;5098512;28;20089;-65
2024/03/16 08:54:26;;;;;;;15.82;10.07;;;;;;;13.47;71.92;100312.44;5100250;28;20346;-66
2024/03/16 08:56:52;;;;;;;17.27;11.52;;;;;;;13.65;70.42;100304.31;5100038;28;20035;-66
2024/03/16 08:59:17;;;;;;;17.77;11.90;;;;;;;13.78;70.21;100301.94;5100796;28;20044;-65
2024/03/16 09:01:43;;;;;;;22.95;12.15;;;;;;;13.94;72.17;100304.59;5099214;28;20035;-64
2024/03/16 09:04:09;;;;;;;20.42;12.57;;;;;;;13.86;72.21;100298.44;5099482;28;20036;-66
2024/03/16 09:06:38;;;;;;;21.80;13.55;;;;;;;13.99;71.38;100301.41;5099803;28;20042;-65
2024/03/16 09:09:07;;;;;;;22.98;14.82;;;;;;;13.86;72.44;100295.78;5099730;28;20064;-66
2024/03/16 09:11:32;;;;;;;21.67;14.82;;;;;;;13.81;72.33;100293.63;5100081;28;20238;-64
2024/03/16 09:13:58;;;;;;;23.48;13.95;;;;;;;13.87;72.42;100292.94;5099773;28;20044;-64
2024/03/16 09:16:23;;;;;;;23.13;14.80;;;;;;;13.61;72.03;100289.66;5099920;28;20027;-65
2024/03/16 09:18:49;;;;;;;29.50;15.90;;;;;;;13.60;73.59;100290.66;5098911;28;20088;-65
2024/03/16 09:21:14;;;;;;;25.00;15.05;;;;;;;13.96;72.10;100291.09;5098501;28;20038;-65
2024/03/16 09:23:40;;;;;;;25.98;15.98;;;;;;;14.08;72.18;100297.72;5099641;28;20039;-65
2024/03/16 09:26:06;;;;;;;27.20;16.88;;;;;;;14.03;72.03;100286.75;5098621;28;20055;-65
2024/03/16 09:28:31;;;;;;;29.42;17.60;;;;;;;14.03;71.01;100292.06;5098387;28;20047;-65
2024/03/16 09:30:57;;;;;;;28.58;17.10;;;;;;;14.08;74.25;100289.72;5097924;28;20039;-65
2024/03/16 09:33:22;;;;;;;25.52;16.83;;;;;;;14.14;72.28;100290.88;5098534;28;20078;-66
2024/03/16 09:35:48;;;;;;;27.98;16.83;;;;;;;14.33;71.13;100283.31;5098654;28;20027;-65
2024/03/16 09:38:13;;;;;;;31.02;17.92;;;;;;;14.44;71.38;100290.13;5098939;28;20089;-65
2024/03/16 09:40:43;;;;;;;28.13;17.05;;;;;;;14.16;68.64;100283.53;5099548;28;20306;-64
2024/03/16 09:43:09;;;;;;;27.42;16.27;;;;;;;14.13;72.94;100275.91;5099260;28;20248;-66
2024/03/16 09:45:35;;;;;;;34.42;18.23;;;;;;;13.66;75.49;100284.69;5098766;28;20289;-66
2024/03/16 09:48:03;;;;;;;30.85;18.40;;;;;;;13.17;79.89;100287.34;5099103;28;20350;-64
2024/03/16 09:50:30;;;;;;;35.10;19.10;;;;;;;13.31;79.58;100280.53;5098483;28;20032;-64
2024/03/16 09:52:58;;;;;;;30.90;17.50;;;;;;;13.46;78.39;100276.19;5098544;28;20032;-64
2024/03/16 09:55:25;;;;;;;29.63;17.65;;;;;;;13.63;77.68;100269.88;5098155;28;20038;-64
2024/03/16 09:57:54;;;;;;;29.42;17.52;;;;;;;13.69;76.27;100261.22;5099103;28;20051;-64
2024/03/16 10:00:21;;;;;;;30.60;16.85;;;;;;;13.61;78.23;100263.06;5098849;28;20031;-64
2024/03/16 10:02:48;;;;;;;28.83;15.77;;;;;;;13.27;77.51;100257.91;5099023;28;20036;-64
2024/03/16 10:05:15;;;;;;;24.10;15.10;;;;;;;13.17;78.92;100262.56;5097973;28;20035;-64
2024/03/16 10:07:40;;;;;;;24.05;15.02;;;;;;;13.32;76.70;100255.59;5098499;28;20048;-64
2024/03/16 10:10:10;;;;;;;24.40;14.20;;;;;;;13.47;76.41;100259.22;5098802;28;20047;-64
2024/03/16 10:12:40;;;;;;;24.60;14.95;;;;;;;13.45;77.94;100255.91;5098321;28;20040;-66
2024/03/16 10:15:19;;;;;;;24.10;15.32;;;;;;;13.25;78.33;100260.75;5097088;28;20425;-64
2024/03/16 10:17:45;;;;;;;25.50;15.45;;;;;;;13.19;80.84;100249.94;5096900;28;20047;-64
2024/03/16 10:20:16;;;;;;;25.50;16.02;;;;;;;13.00;81.08;100251.91;5096564;28;20229;-64
2024/03/16 10:22:45;;;;;;;27.27;16.90;;;;;;;13.23;80.71;100254.75;5096723;28;20048;-64
2024/03/16 10:25:12;;;;;;;29.48;16.17;;;;;;;13.14;80.39;100252.22;5096572;28;20207;-64
2024/03/16 10:27:39;;;;;;;28.10;17.75;;;;;;;13.16;79.46;100248.41;5097149;28;20093;-66
2024/03/16 10:30:12;;;;;;;31.30;18.00;;;;;;;13.21;80.04;100240.78;5098066;28;20318;-64
2024/03/16 10:32:47;;;;;;;28.67;17.73;;;;;;;13.33;78.63;100228.00;5098420;28;20039;-64
2024/03/16 10:35:14;;;;;;;29.52;15.68;;;;;;;13.12;78.22;100239.09;5098298;28;20403;-64
2024/03/16 10:37:44;;;;;;;66.43;21.25;;;;;;;13.06;79.65;100229.13;5098716;28;20056;-64
2024/03/16 10:40:14;;;;;;;35.53;19.27;;;;;;;13.17;80.71;100239.47;5098582;28;20276;-64
2024/03/16 10:42:43;;;;;;;36.25;18.50;;;;;;;13.14;84.21;100239.78;5098180;28;20040;-64
2024/03/16 10:45:13;;;;;;;34.70;19.25;;;;;;;13.13;81.58;100238.09;5097975;28;20039;-64
2024/03/16 10:47:52;;;;;;;35.17;19.58;;;;;;;13.07;80.04;100231.63;5098019;28;20032;-66
2024/03/16 10:50:20;;;;;;;33.90;17.88;;;;;;;13.07;81.92;100222.81;5097893;28;20071;-64
2024/03/16 10:52:48;;;;;;;33.85;18.73;;;;;;;13.04;80.85;100233.78;5098476;28;20042;-64
2024/03/16 10:55:15;;;;;;;29.55;17.50;;;;;;;13.24;79.73;100218.34;5097169;28;20043;-64
2024/03/16 10:57:46;;;;;;;27.23;17.90;;;;;;;13.55;76.43;100210.53;5096740;28;20080;-64
2024/03/16 11:00:20;;;;;;;28.05;17.23;;;;;;;13.53;79.89;100216.03;5096793;28;20042;-64
2024/03/16 11:03:07;;;;;;;26.55;15.23;;;;;;;13.40;79.09;100216.50;5097489;28;20102;-64
2024/03/16 11:05:48;;;;;;;25.67;15.65;;;;;;;13.40;82.54;100213.03;5097317;28;20388;-64
2024/03/16 11:08:14;;;;;;;25.95;16.27;;;;;;;13.55;76.31;100202.53;5097200;28;20097;-64
2024/03/16 11:10:40;;;;;;;23.25;13.40;;;;;;;13.38;78.59;100199.06;5096824;28;20377;-66
2024/03/16 11:13:16;;;;;;;23.48;14.00;;;;;;;13.44;77.59;100195.72;5097837;28;20075;-66
2024/03/16 11:15:44;;;;;;;21.27;12.82;;;;;;;13.52;77.06;100190.38;5097782;28;20035;-64
2024/03/16 11:18:21;;;;;;;18.45;12.65;;;;;;;13.49;74.59;100193.38;5097568;28;20047;-64
2024/03/16 11:20:53;;;;;;;19.63;12.25;;;;;;;13.64;73.06;100193.53;5097595;28;20313;-64
2024/03/16 11:23:30;;;;;;;19.83;11.80;;;;;;;13.87;72.22;100186.47;5098084;28;20051;-64